createdAt,value
2022-09-04T00:00:42.379Z,0.00
2022-09-04T00:01:45.350Z,0.00
2022-09-04T00:02:42.365Z,0.00
2022-09-04T00:03:42.665Z,0.00
2022-09-04T00:04:42.682Z,0.00
2022-09-04T00:05:42.397Z,0.00
2022-09-04T00:06:42.757Z,0.00
2022-09-04T00:07:42.517Z,0.00
2022-09-04T00:08:42.335Z,0.00
2022-09-04T00:09:42.408Z,0.00
2022-09-04T00:10:42.301Z,0.00
2022-09-04T00:11:42.408Z,0.00
2022-09-04T00:12:42.418Z,0.00
2022-09-04T00:13:42.376Z,0.00
2022-09-04T00:14:42.427Z,0.00
2022-09-04T00:15:42.276Z,0.00
2022-09-04T00:16:42.336Z,0.00
2022-09-04T00:17:42.366Z,0.00
2022-09-04T00:18:42.317Z,0.00
2022-09-04T00:19:42.246Z,0.00
2022-09-04T00:20:42.343Z,0.00
2022-09-04T00:21:42.257Z,0.00
2022-09-04T00:22:42.366Z,0.00
2022-09-04T00:23:42.387Z,0.00
2022-09-04T00:24:42.426Z,0.00
2022-09-04T00:25:42.419Z,0.00
2022-09-04T00:26:42.679Z,0.00
2022-09-04T00:27:42.435Z,0.00
2022-09-04T00:28:42.452Z,0.00
2022-09-04T00:29:42.233Z,0.00
2022-09-04T00:30:42.231Z,0.00
2022-09-04T00:31:42.485Z,0.00
2022-09-04T00:32:42.205Z,0.00
2022-09-04T00:33:42.166Z,0.00
2022-09-04T00:34:42.281Z,0.00
2022-09-04T00:35:42.140Z,0.00
2022-09-04T00:36:43.374Z,0.00
2022-09-04T00:37:42.163Z,0.00
2022-09-04T00:38:42.576Z,0.00
2022-09-04T00:39:42.614Z,0.00
2022-09-04T00:40:42.592Z,0.00
2022-09-04T00:41:42.121Z,0.00
2022-09-04T00:42:42.320Z,0.00
2022-09-04T00:43:42.642Z,0.00
2022-09-04T00:44:42.672Z,0.00
2022-09-04T00:45:42.735Z,0.00
2022-09-04T00:46:42.060Z,0.00
2022-09-04T00:47:42.042Z,0.00
2022-09-04T00:48:42.062Z,0.00
2022-09-04T00:49:42.194Z,0.00
2022-09-04T00:50:42.221Z,0.00
2022-09-04T00:51:42.280Z,0.00
2022-09-04T00:52:42.403Z,0.00
2022-09-04T00:53:42.202Z,0.00
2022-09-04T00:54:42.409Z,0.00
2022-09-04T00:55:42.091Z,0.00
2022-09-04T00:56:42.041Z,0.00
2022-09-04T00:57:42.092Z,0.00
2022-09-04T00:58:42.024Z,0.00
2022-09-04T00:59:42.235Z,0.00
2022-09-04T01:00:42.334Z,0.00
2022-09-04T01:01:42.456Z,0.00
2022-09-04T01:02:42.261Z,0.00
2022-09-04T01:03:41.977Z,0.00
2022-09-04T01:04:42.456Z,0.00
2022-09-04T01:05:41.941Z,0.00
2022-09-04T01:06:42.130Z,0.00
2022-09-04T01:07:41.959Z,0.00
2022-09-04T01:08:41.993Z,0.00
2022-09-04T01:09:41.989Z,0.00
2022-09-04T01:10:42.000Z,0.00
2022-09-04T01:11:42.018Z,0.00
2022-09-04T01:12:42.029Z,0.00
2022-09-04T01:13:41.974Z,0.00
2022-09-04T01:14:42.048Z,0.00
2022-09-04T01:15:42.058Z,0.00
2022-09-04T01:16:42.148Z,0.00
2022-09-04T01:17:42.092Z,0.00
2022-09-04T01:18:41.843Z,0.00
2022-09-04T01:19:42.031Z,0.00
2022-09-04T01:20:41.992Z,0.00
2022-09-04T01:21:42.168Z,0.00
2022-09-04T01:22:42.168Z,0.00
2022-09-04T01:23:41.865Z,0.00
2022-09-04T01:24:41.867Z,0.00
2022-09-04T01:25:41.871Z,0.00
2022-09-04T01:26:41.889Z,0.00
2022-09-04T01:27:41.826Z,0.00
2022-09-04T01:28:41.829Z,0.00
2022-09-04T01:29:41.827Z,0.00
2022-09-04T01:30:41.838Z,0.00
2022-09-04T01:31:41.868Z,0.00
2022-09-04T01:32:41.753Z,0.00
2022-09-04T01:33:41.896Z,0.00
2022-09-04T01:34:41.906Z,0.00
2022-09-04T01:35:41.734Z,0.00
2022-09-04T01:36:41.708Z,0.00
2022-09-04T01:37:41.767Z,0.00
2022-09-04T01:38:41.937Z,0.00
2022-09-04T01:39:41.921Z,0.00
2022-09-04T01:40:41.686Z,0.00
2022-09-04T01:41:41.798Z,0.00
2022-09-04T01:42:41.735Z,0.00
2022-09-04T01:43:42.005Z,0.00
2022-09-04T01:44:41.683Z,0.00
2022-09-04T01:45:42.055Z,0.00
2022-09-04T01:46:41.766Z,0.00
2022-09-04T01:47:42.058Z,0.00
2022-09-04T01:48:41.720Z,0.00
2022-09-04T01:49:41.638Z,0.00
2022-09-04T01:50:41.625Z,0.00
2022-09-04T01:51:41.687Z,0.00
2022-09-04T01:52:41.656Z,0.00
2022-09-04T01:53:41.732Z,0.00
2022-09-04T01:54:41.844Z,0.00
2022-09-04T01:55:41.796Z,0.00
2022-09-04T01:56:41.717Z,0.00
2022-09-04T01:57:41.874Z,0.00
2022-09-04T01:58:41.926Z,0.00
2022-09-04T01:59:41.876Z,0.00
2022-09-04T02:00:42.058Z,0.00
2022-09-04T02:01:41.706Z,0.00
2022-09-04T02:02:41.582Z,0.00
2022-09-04T02:03:41.594Z,0.00
2022-09-04T02:04:41.644Z,0.00
2022-09-04T02:05:41.603Z,0.00
2022-09-04T02:06:41.713Z,0.00
2022-09-04T02:07:41.745Z,0.00
2022-09-04T02:08:41.562Z,0.00
2022-09-04T02:09:41.556Z,0.00
2022-09-04T02:10:41.519Z,0.00
2022-09-04T02:11:41.752Z,0.00
2022-09-04T02:12:41.650Z,0.00
2022-09-04T02:13:41.581Z,0.00
2022-09-04T02:14:41.581Z,0.00
2022-09-04T02:15:41.565Z,0.00
2022-09-04T02:16:42.248Z,0.00
2022-09-04T02:17:41.663Z,0.00
2022-09-04T02:18:42.291Z,0.00
2022-09-04T02:19:41.581Z,0.00
2022-09-04T02:20:41.938Z,0.00
2022-09-04T02:21:41.601Z,0.00
2022-09-04T02:22:41.466Z,0.00
2022-09-04T02:23:42.467Z,0.00
2022-09-04T02:24:41.702Z,0.00
2022-09-04T02:25:41.400Z,0.00
2022-09-04T02:26:41.762Z,0.00
2022-09-04T02:27:41.651Z,0.00
2022-09-04T02:28:42.246Z,0.00
2022-09-04T02:29:41.811Z,0.00
2022-09-04T02:30:41.387Z,0.00
2022-09-04T02:31:41.571Z,0.00
2022-09-04T02:32:41.529Z,0.00
2022-09-04T02:33:41.339Z,0.00
2022-09-04T02:34:42.811Z,0.00
2022-09-04T02:35:42.010Z,0.00
2022-09-04T02:36:41.342Z,0.00
2022-09-04T02:37:42.028Z,0.00
2022-09-04T02:38:41.578Z,0.00
2022-09-04T02:39:41.444Z,0.00
2022-09-04T02:40:41.339Z,0.00
2022-09-04T02:41:41.515Z,0.00
2022-09-04T02:42:41.319Z,0.00
2022-09-04T02:43:41.439Z,0.00
2022-09-04T02:44:41.458Z,0.00
2022-09-04T02:45:41.546Z,0.00
2022-09-04T02:46:43.336Z,0.00
2022-09-04T02:47:41.367Z,0.00
2022-09-04T02:48:41.468Z,0.00
2022-09-04T02:49:41.267Z,0.00
2022-09-04T02:50:41.296Z,0.00
2022-09-04T02:51:41.395Z,0.00
2022-09-04T02:52:41.435Z,0.00
2022-09-04T02:53:41.227Z,0.00
2022-09-04T02:54:41.533Z,0.00
2022-09-04T02:55:41.406Z,0.00
2022-09-04T02:56:41.625Z,0.00
2022-09-04T02:57:41.646Z,0.00
2022-09-04T02:58:41.705Z,0.00
2022-09-04T02:59:41.704Z,0.00
2022-09-04T03:00:41.304Z,0.00
2022-09-04T03:01:41.216Z,0.00
2022-09-04T03:02:41.885Z,0.00
2022-09-04T03:03:41.478Z,0.00
2022-09-04T03:04:41.947Z,0.00
2022-09-04T03:05:41.318Z,0.00
2022-09-04T03:06:41.135Z,0.00
2022-09-04T03:07:41.830Z,0.00
2022-09-04T03:08:41.842Z,0.00
2022-09-04T03:09:41.245Z,0.00
2022-09-04T03:10:41.525Z,0.00
2022-09-04T03:11:41.943Z,0.00
2022-09-04T03:12:41.134Z,0.00
2022-09-04T03:13:41.473Z,0.00
2022-09-04T03:14:41.073Z,0.00
2022-09-04T03:15:41.125Z,0.00
2022-09-04T03:16:41.114Z,0.00
2022-09-04T03:17:41.133Z,0.00
2022-09-04T03:18:41.085Z,0.00
2022-09-04T03:19:41.114Z,0.00
2022-09-04T03:20:41.080Z,0.00
2022-09-04T03:21:41.122Z,0.00
2022-09-04T03:22:41.200Z,0.00
2022-09-04T03:23:41.082Z,0.00
2022-09-04T03:24:41.191Z,0.00
2022-09-04T03:25:41.296Z,0.00
2022-09-04T03:26:41.291Z,0.00
2022-09-04T03:27:40.994Z,0.00
2022-09-04T03:28:41.411Z,0.00
2022-09-04T03:29:40.996Z,0.00
2022-09-04T03:30:41.351Z,0.00
2022-09-04T03:31:41.712Z,0.00
2022-09-04T03:32:41.503Z,0.00
2022-09-04T03:33:41.541Z,0.00
2022-09-04T03:34:40.974Z,0.00
2022-09-04T03:35:41.441Z,0.00
2022-09-04T03:36:40.971Z,0.00
2022-09-04T03:37:40.911Z,0.00
2022-09-04T03:38:41.424Z,0.00
2022-09-04T03:39:41.856Z,0.00
2022-09-04T03:40:41.730Z,0.00
2022-09-04T03:41:40.900Z,0.00
2022-09-04T03:42:40.959Z,0.00
2022-09-04T03:43:41.481Z,0.00
2022-09-04T03:44:40.941Z,0.00
2022-09-04T03:45:40.919Z,0.00
2022-09-04T03:46:40.882Z,0.00
2022-09-04T03:47:40.849Z,0.00
2022-09-04T03:48:40.898Z,0.00
2022-09-04T03:49:40.949Z,0.00
2022-09-04T03:50:40.810Z,0.00
2022-09-04T03:51:40.807Z,0.00
2022-09-04T03:52:40.808Z,0.00
2022-09-04T03:53:40.841Z,0.00
2022-09-04T03:54:40.801Z,0.00
2022-09-04T03:55:42.768Z,0.00
2022-09-04T03:56:40.769Z,0.00
2022-09-04T03:57:40.841Z,0.00
2022-09-04T03:58:40.891Z,0.00
2022-09-04T03:59:40.900Z,0.00
2022-09-04T04:00:40.786Z,0.00
2022-09-04T04:01:40.927Z,0.00
2022-09-04T04:02:40.993Z,0.00
2022-09-04T04:03:40.958Z,0.00
2022-09-04T04:04:40.966Z,0.00
2022-09-04T04:05:40.787Z,0.00
2022-09-04T04:06:40.985Z,0.00
2022-09-04T04:07:41.004Z,0.00
2022-09-04T04:08:40.827Z,0.00
2022-09-04T04:09:41.034Z,0.00
2022-09-04T04:10:41.055Z,0.00
2022-09-04T04:11:43.448Z,0.00
2022-09-04T04:12:40.656Z,0.00
2022-09-04T04:13:40.688Z,4.00
2022-09-04T04:14:41.086Z,1.00
2022-09-04T04:15:41.106Z,0.00
2022-09-04T04:16:40.867Z,1.00
2022-09-04T04:17:41.114Z,1.00
2022-09-04T04:18:40.624Z,1.00
2022-09-04T04:19:41.156Z,1.00
2022-09-04T04:20:40.624Z,3.00
2022-09-04T04:21:40.623Z,3.00
2022-09-04T04:22:40.616Z,3.00
2022-09-04T04:23:41.024Z,10.00
2022-09-04T04:24:40.593Z,15.00
2022-09-04T04:25:40.573Z,8.00
2022-09-04T04:26:40.667Z,7.00
2022-09-04T04:27:40.561Z,16.00
2022-09-04T04:28:40.581Z,12.00
2022-09-04T04:29:40.542Z,22.00
2022-09-04T04:30:40.549Z,23.00
2022-09-04T04:31:40.568Z,24.00
2022-09-04T04:32:40.532Z,24.00
2022-09-04T04:33:40.584Z,50.00
2022-09-04T04:34:40.632Z,64.00
2022-09-04T04:35:40.721Z,61.00
2022-09-04T04:36:40.604Z,70.00
2022-09-04T04:37:40.610Z,84.00
2022-09-04T04:38:40.560Z,102.00
2022-09-04T04:39:40.690Z,121.00
2022-09-04T04:40:40.630Z,143.00
2022-09-04T04:41:40.475Z,149.00
2022-09-04T04:42:40.471Z,176.00
2022-09-04T04:43:40.481Z,211.00
2022-09-04T04:44:40.538Z,221.00
2022-09-04T04:45:40.469Z,239.00
2022-09-04T04:46:40.709Z,275.00
2022-09-04T04:47:40.626Z,298.00
2022-09-04T04:48:40.437Z,330.00
2022-09-04T04:49:40.862Z,357.00
2022-09-04T04:50:40.499Z,394.00
2022-09-04T04:51:40.449Z,408.00
2022-09-04T04:52:40.808Z,453.00
2022-09-04T04:53:40.820Z,489.00
2022-09-04T04:54:40.834Z,525.00
2022-09-04T04:55:40.838Z,574.00
2022-09-04T04:56:40.648Z,606.00
2022-09-04T04:57:40.407Z,637.00
2022-09-04T04:58:40.408Z,681.00
2022-09-04T04:59:40.891Z,738.00
2022-09-04T05:00:40.768Z,774.00
2022-09-04T05:01:40.573Z,814.00
2022-09-04T05:02:40.481Z,850.00
2022-09-04T05:03:40.328Z,894.00
2022-09-04T05:04:40.577Z,939.00
2022-09-04T05:05:40.966Z,971.00
2022-09-04T05:06:40.785Z,1020.00
2022-09-04T05:07:40.344Z,1062.00
2022-09-04T05:08:40.335Z,1094.00
2022-09-04T05:09:40.777Z,1129.00
2022-09-04T05:10:40.313Z,1167.00
2022-09-04T05:11:40.286Z,1206.00
2022-09-04T05:12:40.269Z,1228.00
2022-09-04T05:13:40.286Z,1249.00
2022-09-04T05:14:40.245Z,1275.00
2022-09-04T05:15:58.135Z,1309.00
2022-09-04T05:16:40.300Z,1360.00
2022-09-04T05:17:40.279Z,1381.00
2022-09-04T05:18:40.215Z,1433.00
2022-09-04T05:19:40.277Z,1472.00
2022-09-04T05:20:40.239Z,1466.00
2022-09-04T05:21:40.244Z,1495.00
2022-09-04T05:22:40.266Z,1529.00
2022-09-04T05:23:40.213Z,1588.00
2022-09-04T05:24:40.248Z,1613.00
2022-09-04T05:25:40.295Z,1650.00
2022-09-04T05:26:40.313Z,1671.00
2022-09-04T05:27:40.173Z,1675.00
2022-09-04T05:28:40.335Z,1611.00
2022-09-04T05:29:40.163Z,1527.00
2022-09-04T05:30:40.361Z,1140.00
2022-09-04T05:31:40.428Z,1721.00
2022-09-04T05:32:40.394Z,2889.00
2022-09-04T05:33:40.403Z,2083.00
2022-09-04T05:34:40.412Z,1838.00
2022-09-04T05:35:40.426Z,1840.00
2022-09-04T05:36:40.432Z,1831.00
2022-09-04T05:37:40.090Z,1828.00
2022-09-04T05:38:40.115Z,2109.00
2022-09-04T05:39:40.273Z,2257.00
2022-09-04T05:40:40.222Z,1924.00
2022-09-04T05:41:40.264Z,1922.00
2022-09-04T05:42:40.108Z,2352.00
2022-09-04T05:43:40.335Z,1659.00
2022-09-04T05:44:40.056Z,1752.00
2022-09-04T05:45:40.030Z,1813.00
2022-09-04T05:46:40.216Z,1941.00
2022-09-04T05:47:40.071Z,1998.00
2022-09-04T05:48:40.191Z,2013.00
2022-09-04T05:49:40.001Z,2036.00
2022-09-04T05:50:40.110Z,2082.00
2022-09-04T05:51:40.140Z,2120.00
2022-09-04T05:52:40.011Z,2192.00
2022-09-04T05:53:40.140Z,2209.00
2022-09-04T05:54:40.169Z,2242.00
2022-09-04T05:55:40.108Z,2270.00
2022-09-04T05:56:40.029Z,2306.00
2022-09-04T05:57:40.001Z,2327.00
2022-09-04T05:58:40.076Z,2347.00
2022-09-04T05:59:43.927Z,2367.00
2022-09-04T06:00:40.230Z,2398.00
2022-09-04T06:01:40.101Z,2419.00
2022-09-04T06:02:40.295Z,2430.00
2022-09-04T06:03:39.949Z,2489.00
2022-09-04T06:04:40.015Z,2485.00
2022-09-04T06:05:39.916Z,2525.00
2022-09-04T06:06:40.168Z,2554.00
2022-09-04T06:07:39.938Z,2584.00
2022-09-04T06:08:40.069Z,3312.00
2022-09-04T06:09:39.999Z,2828.00
2022-09-04T06:10:40.358Z,2480.00
2022-09-04T06:11:39.947Z,2184.00
2022-09-04T06:12:40.077Z,2602.00
2022-09-04T06:13:39.879Z,2622.00
2022-09-04T06:14:40.413Z,2655.00
2022-09-04T06:15:40.270Z,2705.00
2022-09-04T06:16:40.149Z,2698.00
2022-09-04T06:17:39.825Z,2714.00
2022-09-04T06:18:39.996Z,2728.00
2022-09-04T06:19:39.986Z,2780.00
2022-09-04T06:20:39.997Z,2799.00
2022-09-04T06:21:40.157Z,2834.00
2022-09-04T06:22:40.496Z,2860.00
2022-09-04T06:23:39.863Z,2887.00
2022-09-04T06:24:39.866Z,2890.00
2022-09-04T06:25:39.783Z,2932.00
2022-09-04T06:26:39.784Z,2943.00
2022-09-04T06:27:39.865Z,2968.00
2022-09-04T06:28:39.926Z,2993.00
2022-09-04T06:29:39.964Z,3034.00
2022-09-04T06:30:40.017Z,3079.00
2022-09-04T06:31:39.808Z,3103.00
2022-09-04T06:32:39.740Z,3094.00
2022-09-04T06:33:39.840Z,3135.00
2022-09-04T06:34:39.784Z,3190.00
2022-09-04T06:35:39.704Z,3230.00
2022-09-04T06:36:39.902Z,3260.00
2022-09-04T06:37:39.914Z,3268.00
2022-09-04T06:38:39.884Z,3313.00
2022-09-04T06:39:40.080Z,3352.00
2022-09-04T06:40:40.094Z,3391.00
2022-09-04T06:41:40.117Z,3420.00
2022-09-04T06:42:39.734Z,3486.00
2022-09-04T06:43:40.222Z,3545.00
2022-09-04T06:44:39.680Z,3547.00
2022-09-04T06:45:39.631Z,3617.00
2022-09-04T06:46:39.672Z,3675.00
2022-09-04T06:47:39.623Z,3773.00
2022-09-04T06:48:39.664Z,3748.00
2022-09-04T06:49:39.664Z,3698.00
2022-09-04T06:50:40.033Z,3801.00
2022-09-04T06:51:39.863Z,3835.00
2022-09-04T06:52:39.922Z,3858.00
2022-09-04T06:53:39.584Z,3892.00
2022-09-04T06:54:39.641Z,3913.00
2022-09-04T06:55:39.759Z,3902.00
2022-09-04T06:56:39.723Z,3970.00
2022-09-04T06:57:39.723Z,4133.00
2022-09-04T06:58:40.383Z,3813.00
2022-09-04T06:59:40.264Z,3911.00
2022-09-04T07:00:39.644Z,3900.00
2022-09-04T07:01:39.636Z,3824.00
2022-09-04T07:02:39.658Z,3963.00
2022-09-04T07:03:39.552Z,3812.00
2022-09-04T07:04:39.593Z,3825.00
2022-09-04T07:05:39.521Z,3938.00
2022-09-04T07:06:39.501Z,3801.00
2022-09-04T07:07:39.751Z,3758.00
2022-09-04T07:08:39.684Z,3817.00
2022-09-04T07:09:39.834Z,3746.00
2022-09-04T07:10:39.890Z,3803.00
2022-09-04T07:11:39.931Z,3786.00
2022-09-04T07:12:39.982Z,3750.00
2022-09-04T07:13:39.641Z,3746.00
2022-09-04T07:14:40.084Z,3802.00
2022-09-04T07:15:40.132Z,3817.00
2022-09-04T07:16:40.201Z,3799.00
2022-09-04T07:17:39.413Z,3986.00
2022-09-04T07:18:40.255Z,4000.00
2022-09-04T07:19:40.324Z,3568.00
2022-09-04T07:20:39.410Z,4160.00
2022-09-04T07:21:39.701Z,3798.00
2022-09-04T07:22:40.201Z,3822.00
2022-09-04T07:23:39.480Z,3956.00
2022-09-04T07:24:39.859Z,3859.00
2022-09-04T07:25:39.441Z,3885.00
2022-09-04T07:26:39.461Z,3941.00
2022-09-04T07:27:40.152Z,4152.00
2022-09-04T07:28:39.412Z,4090.00
2022-09-04T07:29:40.091Z,3648.00
2022-09-04T07:30:39.429Z,3974.00
2022-09-04T07:31:39.592Z,3934.00
2022-09-04T07:32:39.530Z,4139.00
2022-09-04T07:33:40.050Z,4161.00
2022-09-04T07:34:39.648Z,4130.00
2022-09-04T07:35:39.698Z,4221.00
2022-09-04T07:36:39.741Z,4226.00
2022-09-04T07:37:40.130Z,4342.00
2022-09-04T07:38:39.325Z,4439.00
2022-09-04T07:39:39.365Z,4541.00
2022-09-04T07:40:39.311Z,4222.00
2022-09-04T07:41:39.361Z,4140.00
2022-09-04T07:42:39.398Z,4252.00
2022-09-04T07:43:39.460Z,4446.00
2022-09-04T07:44:39.499Z,4380.00
2022-09-04T07:45:39.271Z,4303.00
2022-09-04T07:46:39.386Z,4410.00
2022-09-04T07:47:39.210Z,4407.00
2022-09-04T07:48:39.281Z,4352.00
2022-09-04T07:49:39.730Z,4616.00
2022-09-04T07:50:39.258Z,4786.00
2022-09-04T07:51:39.828Z,4206.00
2022-09-04T07:52:39.221Z,4268.00
2022-09-04T07:53:39.798Z,4948.00
2022-09-04T07:54:39.222Z,4204.00
2022-09-04T07:55:39.981Z,4016.00
2022-09-04T07:56:39.680Z,4332.00
2022-09-04T07:57:39.948Z,4687.00
2022-09-04T07:58:39.669Z,4264.00
2022-09-04T07:59:39.133Z,4495.00
2022-09-04T08:00:39.408Z,4414.00
2022-09-04T08:01:40.451Z,4596.00
2022-09-04T08:02:39.818Z,4382.00
2022-09-04T08:03:53.854Z,4579.00
2022-09-04T08:04:39.186Z,4309.00
2022-09-04T08:05:39.087Z,4750.00
2022-09-04T08:06:39.059Z,4807.00
2022-09-04T08:07:39.088Z,4529.00
2022-09-04T08:08:39.088Z,4619.00
2022-09-04T08:09:39.080Z,4640.00
2022-09-04T08:10:39.061Z,4563.00
2022-09-04T08:11:39.118Z,4625.00
2022-09-04T08:12:39.052Z,4696.00
2022-09-04T08:13:39.140Z,4685.00
2022-09-04T08:14:39.139Z,4713.00
2022-09-04T08:15:42.722Z,4782.00
2022-09-04T08:16:39.078Z,4641.00
2022-09-04T08:17:39.118Z,4668.00
2022-09-04T08:18:39.028Z,4755.00
2022-09-04T08:19:39.145Z,4669.00
2022-09-04T08:20:38.988Z,4730.00
2022-09-04T08:21:38.957Z,4735.00
2022-09-04T08:22:39.045Z,4724.00
2022-09-04T08:23:39.037Z,4788.00
2022-09-04T08:24:39.078Z,4751.00
2022-09-04T08:25:39.133Z,4715.00
2022-09-04T08:26:39.176Z,4800.00
2022-09-04T08:27:42.896Z,4934.00
2022-09-04T08:28:42.926Z,4504.00
2022-09-04T08:29:39.351Z,4843.00
2022-09-04T08:30:39.456Z,4795.00
2022-09-04T08:31:39.377Z,4869.00
2022-09-04T08:32:39.391Z,4973.00
2022-09-04T08:33:38.858Z,4858.00
2022-09-04T08:34:39.417Z,4927.00
2022-09-04T08:35:39.426Z,5000.00
2022-09-04T08:36:39.228Z,4813.00
2022-09-04T08:37:39.448Z,4975.00
2022-09-04T08:38:39.468Z,4993.00
2022-09-04T08:39:38.972Z,5053.00
2022-09-04T08:40:38.897Z,5100.00
2022-09-04T08:41:39.497Z,4999.00
2022-09-04T08:42:38.827Z,5060.00
2022-09-04T08:43:38.917Z,5129.00
2022-09-04T08:44:38.917Z,5138.00
2022-09-04T08:45:42.612Z,5152.00
2022-09-04T08:46:38.801Z,5162.00
2022-09-04T08:47:38.788Z,5192.00
2022-09-04T08:48:38.785Z,5203.00
2022-09-04T08:49:38.766Z,5207.00
2022-09-04T08:50:38.836Z,5215.00
2022-09-04T08:51:38.768Z,5215.00
2022-09-04T08:52:38.798Z,5227.00
2022-09-04T08:53:38.727Z,5231.00
2022-09-04T08:54:38.807Z,5227.00
2022-09-04T08:55:38.767Z,5237.00
2022-09-04T08:56:38.909Z,5259.00
2022-09-04T08:57:38.929Z,5281.00
2022-09-04T08:58:38.797Z,5286.00
2022-09-04T08:59:38.824Z,5344.00
2022-09-04T09:00:38.949Z,5382.00
2022-09-04T09:01:39.071Z,5405.00
2022-09-04T09:02:38.885Z,5463.00
2022-09-04T09:03:39.028Z,5444.00
2022-09-04T09:04:38.677Z,5521.00
2022-09-04T09:05:39.018Z,5546.00
2022-09-04T09:06:38.638Z,5586.00
2022-09-04T09:07:38.647Z,5644.00
2022-09-04T09:08:38.697Z,5678.00
2022-09-04T09:09:38.610Z,5679.00
2022-09-04T09:10:38.606Z,5752.00
2022-09-04T09:11:38.606Z,5810.00
2022-09-04T09:12:41.441Z,5899.00
2022-09-04T09:13:38.585Z,5951.00
2022-09-04T09:14:38.566Z,5979.00
2022-09-04T09:15:38.584Z,6068.00
2022-09-04T09:16:38.658Z,6896.00
2022-09-04T09:17:38.560Z,5418.00
2022-09-04T09:18:40.640Z,6266.00
2022-09-04T09:19:38.566Z,6206.00
2022-09-04T09:20:38.545Z,6341.00
2022-09-04T09:21:38.548Z,6403.00
2022-09-04T09:22:38.919Z,6503.00
2022-09-04T09:23:38.506Z,6651.00
2022-09-04T09:24:38.497Z,6661.00
2022-09-04T09:25:42.218Z,6750.00
2022-09-04T09:26:38.506Z,6732.00
2022-09-04T09:27:38.487Z,6710.00
2022-09-04T09:28:38.484Z,6734.00
2022-09-04T09:29:38.502Z,6531.00
2022-09-04T09:30:38.516Z,6513.00
2022-09-04T09:31:38.513Z,6554.00
2022-09-04T09:32:38.448Z,6524.00
2022-09-04T09:33:38.446Z,6578.00
2022-09-04T09:34:38.428Z,6520.00
2022-09-04T09:35:38.430Z,6488.00
2022-09-04T09:36:38.495Z,6464.00
2022-09-04T09:37:38.428Z,6551.00
2022-09-04T09:38:38.410Z,6444.00
2022-09-04T09:39:38.446Z,6465.00
2022-09-04T09:40:38.428Z,6539.00
2022-09-04T09:41:38.539Z,6990.00
2022-09-04T09:42:38.406Z,5881.00
2022-09-04T09:43:38.375Z,6473.00
2022-09-04T09:44:38.395Z,6619.00
2022-09-04T09:45:38.406Z,6693.00
2022-09-04T09:46:38.462Z,6811.00
2022-09-04T09:47:38.725Z,6747.00
2022-09-04T09:48:38.488Z,6849.00
2022-09-04T09:49:38.343Z,6887.00
2022-09-04T09:50:38.516Z,6963.00
2022-09-04T09:51:38.444Z,6904.00
2022-09-04T09:52:38.327Z,6988.00
2022-09-04T09:53:38.326Z,7022.00
2022-09-04T09:54:38.357Z,7016.00
2022-09-04T09:55:38.340Z,7051.00
2022-09-04T09:56:38.455Z,7083.00
2022-09-04T09:57:38.285Z,7104.00
2022-09-04T09:58:38.277Z,7252.00
2022-09-04T09:59:38.275Z,7195.00
2022-09-04T10:00:38.256Z,7125.00
2022-09-04T10:01:38.424Z,7178.00
2022-09-04T10:02:38.456Z,7172.00
2022-09-04T10:03:38.274Z,7230.00
2022-09-04T10:04:38.255Z,7237.00
2022-09-04T10:05:38.298Z,7221.00
2022-09-04T10:06:38.285Z,7329.00
2022-09-04T10:07:38.325Z,7263.00
2022-09-04T10:08:38.228Z,7204.00
2022-09-04T10:11:04.263Z,0.00
2022-09-04T10:12:04.502Z,7254.00
2022-09-04T10:13:04.147Z,7269.00
2022-09-04T10:14:04.142Z,7310.00
2022-09-04T10:15:04.144Z,7294.00
2022-09-04T10:16:04.112Z,7181.00
2022-09-04T10:17:04.186Z,7197.00
2022-09-04T10:18:04.102Z,7334.00
2022-09-04T10:19:04.115Z,7486.00
2022-09-04T10:20:04.094Z,7577.00
2022-09-04T10:21:04.083Z,7602.00
2022-09-04T10:22:04.107Z,7684.00
2022-09-04T10:23:04.099Z,7629.00
2022-09-04T10:24:04.061Z,7762.00
2022-09-04T10:25:04.091Z,7773.00
2022-09-04T10:26:04.073Z,7908.00
2022-09-04T10:27:04.073Z,8026.00
2022-09-04T10:28:04.128Z,8141.00
2022-09-04T10:29:04.273Z,8309.00
2022-09-04T10:30:04.064Z,8454.00
2022-09-04T10:31:04.097Z,8547.00
2022-09-04T10:32:04.333Z,8642.00
2022-09-04T10:33:08.003Z,8715.00
2022-09-04T10:34:04.024Z,8830.00
2022-09-04T10:35:04.031Z,8956.00
2022-09-04T10:36:03.998Z,9097.00
2022-09-04T10:37:04.094Z,9118.00
2022-09-04T10:38:03.972Z,9203.00
2022-09-04T10:39:04.049Z,9218.00
2022-09-04T10:40:04.071Z,9490.00
2022-09-04T10:41:03.955Z,9726.00
2022-09-04T10:42:03.994Z,10047.00
2022-09-04T10:43:03.942Z,10177.00
2022-09-04T10:44:04.012Z,10571.00
2022-09-04T10:45:03.985Z,11105.00
2022-09-04T10:46:04.082Z,11412.00
2022-09-04T10:47:04.033Z,6991.00
2022-09-04T10:48:03.920Z,8537.00
2022-09-04T10:49:03.902Z,41986.00
2022-09-04T10:50:03.913Z,151077.00
2022-09-04T10:51:03.901Z,151609.00
2022-09-04T10:52:03.913Z,155722.00
2022-09-04T10:53:03.915Z,159096.00
2022-09-04T10:54:07.455Z,159156.00
2022-09-04T10:55:03.917Z,161125.00
2022-09-04T10:56:03.865Z,157946.00
2022-09-04T10:57:03.863Z,155571.00
2022-09-04T10:58:03.833Z,159595.00
2022-09-04T10:59:03.842Z,161597.00
2022-09-04T11:00:03.833Z,159435.00
2022-09-04T11:01:03.871Z,157879.00
2022-09-04T11:02:03.868Z,156612.00
2022-09-04T11:03:03.812Z,155384.00
2022-09-04T11:04:03.813Z,154475.00
2022-09-04T11:05:03.788Z,156880.00
2022-09-04T11:06:03.784Z,161226.00
2022-09-04T11:07:03.800Z,162294.00
2022-09-04T11:08:04.073Z,158208.00
2022-09-04T11:09:03.832Z,156955.00
2022-09-04T11:10:04.096Z,162225.00
2022-09-04T11:11:03.757Z,163544.00
2022-09-04T11:12:03.744Z,161054.00
2022-09-04T11:13:03.794Z,158170.00
2022-09-04T11:14:03.736Z,158931.00
2022-09-04T11:15:04.162Z,159257.00
2022-09-04T11:16:03.762Z,156113.00
2022-09-04T11:17:03.754Z,155013.00
2022-09-04T11:18:03.737Z,158111.00
2022-09-04T11:19:03.769Z,160248.00
2022-09-04T11:20:03.695Z,160239.00
2022-09-04T11:21:03.788Z,159334.00
2022-09-04T11:22:03.700Z,158504.00
2022-09-04T11:23:03.693Z,155518.00
2022-09-04T11:24:03.664Z,161638.00
2022-09-04T11:25:03.657Z,157853.00
2022-09-04T11:26:03.654Z,160607.00
2022-09-04T11:27:08.103Z,165002.00
2022-09-04T11:28:03.664Z,160168.00
2022-09-04T11:29:04.154Z,159262.00
2022-09-04T11:30:03.634Z,164518.00
2022-09-04T11:31:03.644Z,163827.00
2022-09-04T11:32:03.694Z,162946.00
2022-09-04T11:33:04.477Z,164771.00
2022-09-04T11:34:03.604Z,162524.00
2022-09-04T11:35:03.615Z,158651.00
2022-09-04T11:36:03.595Z,161557.00
2022-09-04T11:37:04.495Z,159618.00
2022-09-04T11:38:04.497Z,156858.00
2022-09-04T11:39:03.592Z,164174.00
2022-09-04T11:40:04.582Z,158754.00
2022-09-04T11:41:04.505Z,155421.00
2022-09-04T11:42:04.325Z,155157.00
2022-09-04T11:43:04.435Z,151314.00
2022-09-04T11:44:03.585Z,150901.00
2022-09-04T11:45:04.383Z,149916.00
2022-09-04T11:46:03.618Z,146895.00
2022-09-04T11:47:04.446Z,142459.00
2022-09-04T11:48:03.594Z,141929.00
2022-09-04T11:49:03.555Z,75132.00
2022-09-04T11:50:03.567Z,144694.00
2022-09-04T11:51:03.506Z,145213.00
2022-09-04T11:52:03.585Z,147170.00
2022-09-04T11:53:03.605Z,148489.00
2022-09-04T11:54:03.489Z,150556.00
2022-09-04T11:55:03.696Z,151416.00
2022-09-04T11:56:03.587Z,154663.00
2022-09-04T11:57:03.596Z,160377.00
2022-09-04T11:58:03.509Z,163420.00
2022-09-04T11:59:03.511Z,162826.00
2022-09-04T12:00:03.586Z,159052.00
2022-09-04T12:01:03.537Z,157548.00
2022-09-04T12:02:03.541Z,160695.00
2022-09-04T12:03:03.454Z,160405.00
2022-09-04T12:04:03.824Z,162634.00
2022-09-04T12:05:03.434Z,161333.00
2022-09-04T12:06:03.875Z,154563.00
2022-09-04T12:07:03.925Z,155174.00
2022-09-04T12:08:03.967Z,159953.00
2022-09-04T12:09:03.414Z,156554.00
2022-09-04T12:10:03.527Z,150370.00
2022-09-04T12:11:04.120Z,149929.00
2022-09-04T12:12:04.169Z,152431.00
2022-09-04T12:13:14.802Z,154686.00
2022-09-04T12:14:04.248Z,152554.00
2022-09-04T12:15:07.542Z,155647.00
2022-09-04T12:16:04.249Z,157648.00
2022-09-04T12:17:04.398Z,153191.00
2022-09-04T12:18:04.278Z,156113.00
2022-09-04T12:19:04.187Z,152490.00
2022-09-04T12:20:07.604Z,141768.00
2022-09-04T12:21:04.249Z,70144.00
2022-09-04T12:22:03.407Z,51110.00
2022-09-04T12:23:04.317Z,24563.00
2022-09-04T12:24:04.217Z,19295.00
2022-09-04T12:25:04.376Z,15951.00
2022-09-04T12:26:03.717Z,6746.00
2022-09-04T12:27:03.520Z,20957.00